Time;durP1;ratioP1;P1;durP2;ratioP2;P2;SDS_P1;SDS_P2;PMS_P1;PMS_P2;Temp;Humidity;BMP_temperature;BMP_pressure;BME280_temperature;BME280_humidity;BME280_pressure;Samples;Min_cycle;Max_cycle;Signal;HPM_P1;HPM_P2
2022/09/11 00:02:14;;;;;;;8.75;3.03;;;;;;;;;;5076256;28;20060;-60
2022/09/11 00:04:41;;;;;;;4.32;2.28;;;;;;;;;;5076376;28;20040;-56
2022/09/11 00:07:15;;;;;;;6.00;2.67;;;;;;;;;;5077430;28;20048;-59
2022/09/11 00:09:43;;;;;;;4.55;3.10;;;;;;;;;;5075430;28;20049;-59
2022/09/11 00:12:11;;;;;;;4.13;3.60;;;;;;;;;;5077321;28;20151;-59
2022/09/11 00:14:45;;;;;;;6.72;3.53;;;;;;;;;;5079033;28;20055;-67
2022/09/11 00:17:14;;;;;;;6.55;3.60;;;;;;;;;;5079652;28;20050;-62
2022/09/11 00:19:41;;;;;;;5.47;3.70;;;;;;;;;;5078919;28;20066;-48
2022/09/11 00:22:16;;;;;;;7.15;4.18;;;;;;;;;;5082179;28;20044;-49
2022/09/11 00:24:43;;;;;;;9.52;3.97;;;;;;;;;;5080128;28;20059;-48
2022/09/11 00:27:10;;;;;;;5.93;3.97;;;;;;;;;;5078484;28;20218;-49
2022/09/11 00:29:50;;;;;;;5.80;3.70;;;;;;;;;;5073719;28;20049;-46
2022/09/11 00:32:17;;;;;;;7.90;2.38;;;;;;;;;;5078887;28;20487;-67
2022/09/11 00:34:51;;;;;;;3.63;2.20;;;;;;;;;;5076020;28;20423;-51
2022/09/11 00:37:19;;;;;;;6.00;2.70;;;;;;;;;;5080758;28;20487;-49
2022/09/11 00:39:47;;;;;;;7.70;2.58;;;;;;;;;;5078729;28;20068;-47
2022/09/11 00:42:21;;;;;;;6.18;2.67;;;;;;;;;;5078869;28;20045;-52
2022/09/11 00:44:48;;;;;;;4.80;2.80;;;;;;;;;;5080204;28;20059;-50
2022/09/11 00:47:17;;;;;;;11.02;3.67;;;;;;;;;;5082135;28;20700;-47
2022/09/11 00:49:53;;;;;;;5.63;4.15;;;;;;;;;;5079253;28;20048;-49
2022/09/11 00:52:22;;;;;;;13.45;3.72;;;;;;;;;;5081615;28;20240;-47
2022/09/11 00:54:54;;;;;;;5.82;3.15;;;;;;;;;;5077898;28;20062;-59
2022/09/11 00:57:30;;;;;;;4.70;3.40;;;;;;;;;;5077244;28;20055;-54
2022/09/11 00:59:58;;;;;;;7.28;3.35;;;;;;;;;;5082137;28;20048;-57
2022/09/11 01:02:27;;;;;;;4.85;3.92;;;;;;;;;;5081923;28;20059;-54
2022/09/11 01:05:02;;;;;;;6.28;3.83;;;;;;;;;;5081198;28;20406;-52
2022/09/11 01:07:29;;;;;;;4.28;3.55;;;;;;;;;;5080184;28;20082;-55
2022/09/11 01:09:58;;;;;;;7.50;3.20;;;;;;;;;;5080796;28;20053;-53
2022/09/11 01:12:50;;;;;;;6.47;3.70;;;;;;;;;;5074841;28;20048;-55
2022/09/11 01:15:22;;;;;;;6.50;3.97;;;;;;;;;;5080300;28;20525;-59
2022/09/11 01:18:01;;;;;;;5.78;3.00;;;;;;;;;;5080822;28;20056;-60
2022/09/11 01:20:29;;;;;;;5.35;3.35;;;;;;;;;;5074649;28;20089;-55
2022/09/11 01:23:18;;;;;;;8.07;3.40;;;;;;;;;;5077784;28;20048;-56
2022/09/11 01:26:04;;;;;;;9.23;3.55;;;;;;;;;;5068498;28;20044;-58
2022/09/11 01:28:49;;;;;;;5.32;3.17;;;;;;;;;;5079303;28;20060;-59
2022/09/11 01:31:18;;;;;;;6.18;3.40;;;;;;;;;;5078652;28;20059;-68
2022/09/11 01:33:58;;;;;;;6.05;3.78;;;;;;;;;;5078104;28;20054;-45
2022/09/11 01:36:28;;;;;;;5.90;3.42;;;;;;;;;;5075103;28;20045;-46
2022/09/11 01:39:03;;;;;;;6.45;3.60;;;;;;;;;;5064664;28;20044;-48
2022/09/11 01:41:43;;;;;;;7.80;4.32;;;;;;;;;;5074839;28;20059;-50
2022/09/11 01:44:21;;;;;;;10.95;5.22;;;;;;;;;;5077160;28;20496;-50
2022/09/11 01:46:50;;;;;;;9.57;5.78;;;;;;;;;;5061258;28;20545;-50
2022/09/11 01:49:42;;;;;;;15.80;6.70;;;;;;;;;;5077794;28;20082;-56
2022/09/11 01:52:11;;;;;;;15.93;8.18;;;;;;;;;;5077762;28;20460;-60
2022/09/11 01:54:50;;;;;;;16.02;7.30;;;;;;;;;;5067412;28;20040;-59
2022/09/11 01:57:24;;;;;;;18.55;8.30;;;;;;;;;;5078035;28;20058;-58
2022/09/11 02:00:00;;;;;;;15.65;7.80;;;;;;;;;;5078490;28;20059;-60
2022/09/11 02:02:30;;;;;;;19.33;8.35;;;;;;;;;;5081500;28;20138;-60
2022/09/11 02:05:05;;;;;;;19.95;7.88;;;;;;;;;;5080792;28;20562;-60
2022/09/11 02:07:42;;;;;;;14.40;8.57;;;;;;;;;;5064084;28;20047;-60
2022/09/11 02:10:29;;;;;;;20.45;8.73;;;;;;;;;;5076960;28;20052;-68
2022/09/11 02:12:58;;;;;;;13.73;7.80;;;;;;;;;;5080092;28;20066;-60
2022/09/11 02:15:38;;;;;;;15.68;8.05;;;;;;;;;;5080681;28;20048;-59
2022/09/11 02:18:16;;;;;;;20.50;8.00;;;;;;;;;;5078808;28;20044;-59
2022/09/11 02:20:51;;;;;;;13.93;8.02;;;;;;;;;;5077235;28;20048;-59
2022/09/11 02:23:19;;;;;;;15.90;8.55;;;;;;;;;;5079805;28;20498;-57
2022/09/11 02:25:47;;;;;;;16.77;8.70;;;;;;;;;;5077276;28;20416;-57
2022/09/11 02:28:28;;;;;;;15.00;8.07;;;;;;;;;;5075770;28;20059;-67
2022/09/11 02:30:55;;;;;;;12.90;7.18;;;;;;;;;;5078121;28;20478;-67
2022/09/11 02:33:31;;;;;;;10.45;5.75;;;;;;;;;;5081574;28;20511;-67
2022/09/11 02:36:25;;;;;;;12.05;6.00;;;;;;;;;;5062371;28;20538;-68
2022/09/11 02:39:05;;;;;;;12.32;6.63;;;;;;;;;;5077175;28;20066;-67
2022/09/11 02:41:41;;;;;;;18.98;7.07;;;;;;;;;;5076520;28;20044;-67
2022/09/11 02:44:24;;;;;;;13.75;7.57;;;;;;;;;;5065215;28;20044;-67
2022/09/11 02:47:03;;;;;;;13.18;6.55;;;;;;;;;;5079113;28;20455;-67
2022/09/11 02:49:50;;;;;;;15.65;7.10;;;;;;;;;;5078955;28;20557;-47
2022/09/11 02:52:26;;;;;;;14.18;7.38;;;;;;;;;;5079713;28;20040;-48
2022/09/11 02:55:19;;;;;;;18.40;7.45;;;;;;;;;;5078895;28;20044;-49
2022/09/11 02:57:51;;;;;;;12.70;7.30;;;;;;;;;;5081198;28;20054;-47
2022/09/11 03:00:24;;;;;;;15.80;7.55;;;;;;;;;;5079335;28;20054;-49
2022/09/11 03:02:52;;;;;;;13.15;7.65;;;;;;;;;;5077192;28;20054;-49
2022/09/11 03:05:20;;;;;;;14.55;8.38;;;;;;;;;;5075830;28;20411;-68
2022/09/11 03:07:54;;;;;;;17.65;7.00;;;;;;;;;;5079743;28;20047;-59
2022/09/11 03:10:21;;;;;;;14.10;7.95;;;;;;;;;;5074803;28;20041;-46
2022/09/11 03:12:49;;;;;;;18.33;8.20;;;;;;;;;;5079632;28;20131;-46
2022/09/11 03:15:24;;;;;;;19.27;8.10;;;;;;;;;;5078216;28;20048;-51
2022/09/11 03:17:52;;;;;;;15.95;8.55;;;;;;;;;;5071352;28;20426;-45
2022/09/11 03:20:20;;;;;;;13.85;8.57;;;;;;;;;;5076740;28;20505;-45
2022/09/11 03:22:55;;;;;;;13.55;7.45;;;;;;;;;;5077570;28;20052;-45
2022/09/11 03:25:26;;;;;;;18.20;7.75;;;;;;;;;;5080741;28;20515;-59
2022/09/11 03:27:54;;;;;;;16.40;7.43;;;;;;;;;;5077639;28;20056;-47
2022/09/11 03:30:34;;;;;;;15.88;8.32;;;;;;;;;;5077845;28;20048;-50
2022/09/11 03:33:02;;;;;;;17.08;8.52;;;;;;;;;;5077579;28;20052;-48
2022/09/11 03:35:36;;;;;;;19.13;8.75;;;;;;;;;;5079616;28;20040;-51
2022/09/11 03:38:03;;;;;;;15.35;8.13;;;;;;;;;;5073384;28;20503;-51
2022/09/11 03:40:30;;;;;;;18.98;7.70;;;;;;;;;;5076386;28;20418;-50
2022/09/11 03:43:04;;;;;;;15.45;7.43;;;;;;;;;;5077486;28;20054;-45
2022/09/11 03:45:32;;;;;;;19.90;8.88;;;;;;;;;;5079008;28;20051;-46
2022/09/11 03:48:00;;;;;;;17.50;9.30;;;;;;;;;;5077862;28;20052;-46
2022/09/11 03:50:34;;;;;;;20.30;8.20;;;;;;;;;;5082187;28;20044;-46
2022/09/11 03:53:01;;;;;;;17.27;7.90;;;;;;;;;;5083378;28;20491;-49
2022/09/11 03:55:28;;;;;;;17.05;9.15;;;;;;;;;;5078401;28;20141;-46
2022/09/11 03:58:02;;;;;;;14.35;8.43;;;;;;;;;;5068909;28;20058;-48
2022/09/11 04:00:29;;;;;;;13.13;7.70;;;;;;;;;;5081785;28;20411;-46
2022/09/11 04:02:56;;;;;;;12.05;7.80;;;;;;;;;;5077629;28;20056;-48
2022/09/11 04:05:30;;;;;;;17.65;8.65;;;;;;;;;;5078431;28;20498;-67
2022/09/11 04:07:57;;;;;;;13.68;8.18;;;;;;;;;;5078985;28;20051;-47
2022/09/11 04:10:24;;;;;;;20.52;10.23;;;;;;;;;;5080089;28;20059;-49
2022/09/11 04:13:00;;;;;;;16.42;8.15;;;;;;;;;;5083976;28;20144;-47
2022/09/11 04:15:27;;;;;;;11.65;7.88;;;;;;;;;;5078261;28;20056;-47
2022/09/11 04:17:55;;;;;;;15.05;8.20;;;;;;;;;;5082303;28;20051;-47
2022/09/11 04:20:31;;;;;;;12.82;9.10;;;;;;;;;;5075807;28;20044;-49
2022/09/11 04:22:59;;;;;;;22.05;8.63;;;;;;;;;;5079329;28;20048;-56
2022/09/11 04:25:26;;;;;;;19.63;9.75;;;;;;;;;;5079639;28;20054;-47
2022/09/11 04:28:06;;;;;;;19.88;9.60;;;;;;;;;;5080375;28;20049;-49
2022/09/11 04:30:41;;;;;;;13.95;7.07;;;;;;;;;;5078422;28;20155;-48
2022/09/11 04:33:15;;;;;;;7.20;4.95;;;;;;;;;;5062614;28;20525;-47
2022/09/11 04:35:43;;;;;;;14.40;7.78;;;;;;;;;;5077593;28;20418;-46
2022/09/11 04:38:10;;;;;;;13.18;7.80;;;;;;;;;;5078739;28;20048;-48
2022/09/11 04:40:44;;;;;;;18.55;9.52;;;;;;;;;;5077807;28;20058;-58
2022/09/11 04:43:11;;;;;;;18.60;9.20;;;;;;;;;;5083583;28;20059;-51
2022/09/11 04:45:39;;;;;;;16.13;9.48;;;;;;;;;;5077871;28;20586;-60
2022/09/11 04:48:13;;;;;;;18.73;9.98;;;;;;;;;;5083087;28;20546;-59
2022/09/11 04:50:40;;;;;;;14.80;8.77;;;;;;;;;;5081167;28;20054;-59
2022/09/11 04:53:07;;;;;;;18.95;9.43;;;;;;;;;;5077788;28;20419;-59
2022/09/11 04:55:41;;;;;;;14.07;7.15;;;;;;;;;;5079008;28;20051;-59
2022/09/11 04:58:08;;;;;;;7.00;4.53;;;;;;;;;;5077063;28;20131;-59
2022/09/11 05:00:36;;;;;;;12.35;7.00;;;;;;;;;;5062453;28;20052;-47
2022/09/11 05:03:10;;;;;;;8.20;5.25;;;;;;;;;;5076777;28;20063;-48
2022/09/11 05:05:37;;;;;;;10.95;5.90;;;;;;;;;;5081154;28;20162;-49
2022/09/11 05:08:05;;;;;;;;;;;;;;;;;;5078929;28;20053;-49
2022/09/11 05:10:39;;;;;;;13.05;7.00;;;;;;;;;;5077517;28;19935;-49
2022/09/11 05:13:06;;;;;;;12.80;6.85;;;;;;;;;;5080088;28;20040;-48
2022/09/11 05:15:33;;;;;;;8.40;5.18;;;;;;;;;;5077948;28;20059;-48
2022/09/11 05:18:07;;;;;;;8.00;4.70;;;;;;;;;;5081087;28;20062;-59
2022/09/11 05:20:34;;;;;;;8.52;5.97;;;;;;;;;;5079421;28;20044;-63
2022/09/11 05:23:01;;;;;;;10.35;5.47;;;;;;;;;;5080417;28;20115;-63
2022/09/11 05:25:41;;;;;;;10.45;6.40;;;;;;;;;;5064882;28;20044;-63
2022/09/11 05:28:16;;;;;;;10.40;5.82;;;;;;;;;;5077958;28;20419;-62
2022/09/11 05:30:50;;;;;;;16.75;8.18;;;;;;;;;;5079582;28;20499;-63
2022/09/11 05:33:17;;;;;;;;;;;;;;;;;;5079633;28;20044;-63
2022/09/11 05:35:45;;;;;;;9.23;6.68;;;;;;;;;;5077354;28;19924;-64
2022/09/11 05:38:20;;;;;;;12.50;7.95;;;;;;;;;;5079887;28;21400;-67
2022/09/11 05:40:51;;;;;;;14.35;10.07;;;;;;;;;;5079740;28;20048;-56
2022/09/11 05:43:18;;;;;;;14.57;8.82;;;;;;;;;;5076564;28;20063;-67
2022/09/11 05:45:57;;;;;;;12.35;8.18;;;;;;;;;;5079568;28;20056;-67
2022/09/11 05:48:24;;;;;;;12.40;8.30;;;;;;;;;;5076692;28;20052;-67
2022/09/11 05:50:52;;;;;;;11.85;7.00;;;;;;;;;;5062812;28;20048;-66
2022/09/11 05:53:27;;;;;;;11.18;7.88;;;;;;;;;;5075438;28;20059;-68
2022/09/11 05:55:54;;;;;;;15.93;9.25;;;;;;;;;;5075009;28;20052;-67
2022/09/11 05:58:21;;;;;;;11.13;8.20;;;;;;;;;;5073569;28;20742;-56
2022/09/11 06:01:02;;;;;;;12.32;8.13;;;;;;;;;;5075790;28;20040;-59
2022/09/11 06:03:32;;;;;;;9.07;7.40;;;;;;;;;;5076104;28;20047;-59
2022/09/11 06:06:08;;;;;;;14.77;8.70;;;;;;;;;;5076369;28;20555;-60
2022/09/11 06:08:36;;;;;;;15.00;9.70;;;;;;;;;;5079096;28;20500;-59
2022/09/11 06:11:06;;;;;;;15.10;10.27;;;;;;;;;;5077315;28;20044;-59
2022/09/11 06:13:40;;;;;;;13.75;9.13;;;;;;;;;;5076023;28;20052;-59
2022/09/11 06:16:12;;;;;;;16.02;9.05;;;;;;;;;;5074479;28;20080;-62
2022/09/11 06:18:48;;;;;;;15.20;9.25;;;;;;;;;;5077919;28;20077;-49
2022/09/11 06:21:18;;;;;;;16.23;9.07;;;;;;;;;;5074400;28;20075;-59
2022/09/11 06:23:47;;;;;;;16.88;9.65;;;;;;;;;;5076863;28;20131;-59
2022/09/11 06:26:23;;;;;;;23.15;10.55;;;;;;;;;;5075951;28;20373;-57
2022/09/11 06:28:57;;;;;;;15.25;9.20;;;;;;;;;;5044759;28;20481;-57
2022/09/11 06:31:31;;;;;;;17.85;9.20;;;;;;;;;;5056432;28;20048;-59
2022/09/11 06:33:59;;;;;;;22.02;9.10;;;;;;;;;;5055468;28;20052;-56
2022/09/11 06:36:26;;;;;;;16.20;9.77;;;;;;;;;;5059381;28;20044;-59
2022/09/11 06:39:01;;;;;;;12.70;8.80;;;;;;;;;;5056248;28;20059;-59
2022/09/11 06:41:28;;;;;;;19.10;9.88;;;;;;;;;;5055352;28;20045;-55
2022/09/11 06:43:55;;;;;;;12.90;9.15;;;;;;;;;;5054828;28;20057;-58
2022/09/11 06:46:29;;;;;;;18.00;9.00;;;;;;;;;;5055641;28;20411;-57
2022/09/11 06:48:56;;;;;;;13.38;9.18;;;;;;;;;;5055419;28;20053;-57
2022/09/11 06:51:23;;;;;;;16.80;10.45;;;;;;;;;;5056631;28;20053;-57
2022/09/11 06:53:58;;;;;;;18.67;9.88;;;;;;;;;;5056845;28;20430;-55
2022/09/11 06:56:25;;;;;;;20.92;11.25;;;;;;;;;;5057820;28;20495;-54
2022/09/11 06:58:52;;;;;;;21.17;11.48;;;;;;;;;;5051436;28;20060;-66
2022/09/11 07:01:27;;;;;;;24.13;10.98;;;;;;;;;;5055787;28;20054;-66
2022/09/11 07:03:55;;;;;;;21.63;11.43;;;;;;;;;;5053912;28;20191;-67
2022/09/11 07:06:23;;;;;;;26.25;11.38;;;;;;;;;;5048501;28;20119;-67
2022/09/11 07:09:00;;;;;;;15.38;9.07;;;;;;;;;;5054120;28;20052;-67
2022/09/11 07:11:28;;;;;;;19.45;10.48;;;;;;;;;;5054691;28;20055;-67
2022/09/11 07:13:55;;;;;;;17.67;10.27;;;;;;;;;;5057964;28;20049;-66
2022/09/11 07:16:29;;;;;;;17.25;9.40;;;;;;;;;;5055381;28;20050;-63
2022/09/11 07:18:57;;;;;;;13.45;7.63;;;;;;;;;;5052478;28;20063;-63
2022/09/11 07:21:25;;;;;;;16.10;8.23;;;;;;;;;;5042684;28;20053;-63
2022/09/11 07:24:00;;;;;;;23.75;8.50;;;;;;;;;;5057573;28;20059;-63
2022/09/11 07:26:28;;;;;;;13.55;7.43;;;;;;;;;;5053836;28;20045;-63
2022/09/11 07:29:01;;;;;;;16.17;7.63;;;;;;;;;;5076639;28;20052;-63
2022/09/11 07:31:38;;;;;;;16.92;7.38;;;;;;;;;;5074478;28;20054;-63
2022/09/11 07:34:05;;;;;;;15.02;6.10;;;;;;;;;;5075117;28;20047;-46
2022/09/11 07:36:33;;;;;;;10.68;5.82;;;;;;;;;;5074775;28;20055;-68
2022/09/11 07:39:08;;;;;;;10.52;5.55;;;;;;;;;;5074146;28;20055;-66
2022/09/11 07:41:35;;;;;;;10.55;5.55;;;;;;;;;;5073322;28;20044;-68
2022/09/11 07:44:02;;;;;;;12.32;5.80;;;;;;;;;;5074479;28;20044;-68
2022/09/11 07:46:40;;;;;;;11.82;6.10;;;;;;;;;;5075687;28;20047;-68
2022/09/11 07:49:08;;;;;;;14.30;5.68;;;;;;;;;;5075521;28;20132;-68
2022/09/11 07:51:37;;;;;;;11.43;4.90;;;;;;;;;;5074696;28;20066;-62
2022/09/11 07:54:11;;;;;;;12.52;4.90;;;;;;;;;;5071645;28;20052;-58
2022/09/11 07:56:40;;;;;;;11.90;5.10;;;;;;;;;;5077567;28;20059;-59
2022/09/11 07:59:08;;;;;;;8.30;4.75;;;;;;;;;;5076808;28;20050;-59
2022/09/11 08:01:42;;;;;;;14.80;5.30;;;;;;;;;;5075825;28;20032;-60
2022/09/11 08:04:10;;;;;;;8.07;4.28;;;;;;;;;;5075970;28;20055;-60
2022/09/11 08:06:37;;;;;;;12.38;4.63;;;;;;;;;;5072836;28;20811;-61
2022/09/11 08:09:16;;;;;;;6.93;4.22;;;;;;;;;;5077237;28;20052;-60
2022/09/11 08:11:47;;;;;;;8.75;4.97;;;;;;;;;;5070967;28;20044;-45
2022/09/11 08:14:21;;;;;;;9.03;4.57;;;;;;;;;;5059885;28;20056;-48
2022/09/11 08:16:48;;;;;;;12.88;4.70;;;;;;;;;;5073376;28;20051;-45
2022/09/11 08:19:18;;;;;;;14.65;5.20;;;;;;;;;;5075454;28;20614;-47
2022/09/11 08:21:52;;;;;;;9.05;5.38;;;;;;;;;;5076425;28;20049;-47
2022/09/11 08:24:20;;;;;;;13.80;5.43;;;;;;;;;;5077243;28;20041;-48
2022/09/11 08:26:47;;;;;;;14.63;5.82;;;;;;;;;;5074384;28;20047;-46
2022/09/11 08:29:27;;;;;;;15.15;6.75;;;;;;;;;;5075615;28;20411;-57
2022/09/11 08:31:55;;;;;;;14.77;6.78;;;;;;;;;;5075118;28;20067;-59
2022/09/11 08:34:29;;;;;;;14.68;6.20;;;;;;;;;;5076389;28;20044;-60
2022/09/11 08:36:56;;;;;;;13.13;5.85;;;;;;;;;;5079565;28;20040;-60
2022/09/11 08:39:24;;;;;;;14.75;6.65;;;;;;;;;;5076927;28;20058;-60
2022/09/11 08:42:01;;;;;;;11.30;5.80;;;;;;;;;;5078715;28;20458;-60
2022/09/11 08:44:48;;;;;;;11.20;5.90;;;;;;;;;;5075800;28;20131;-61
2022/09/11 08:47:24;;;;;;;12.93;5.38;;;;;;;;;;5078946;28;20415;-60
2022/09/11 08:50:03;;;;;;;9.05;5.50;;;;;;;;;;5064777;28;20056;-59
2022/09/11 08:52:37;;;;;;;13.05;5.13;;;;;;;;;;5063700;28;20098;-50
2022/09/11 08:55:05;;;;;;;12.80;5.68;;;;;;;;;;5078747;28;20044;-45
2022/09/11 08:57:43;;;;;;;8.48;5.47;;;;;;;;;;5075121;28;20045;-45
2022/09/11 09:00:20;;;;;;;8.55;4.47;;;;;;;;;;5078880;28;20416;-46
2022/09/11 09:02:56;;;;;;;8.23;4.80;;;;;;;;;;5075612;28;20040;-46
2022/09/11 09:05:31;;;;;;;10.30;5.13;;;;;;;;;;5077825;28;20063;-49
2022/09/11 09:08:05;;;;;;;12.98;4.63;;;;;;;;;;5076207;28;20044;-54
2022/09/11 09:10:51;;;;;;;6.65;4.28;;;;;;;;;;5076046;28;20048;-57
2022/09/11 09:13:37;;;;;;;6.35;4.28;;;;;;;;;;5074728;28;20411;-56
2022/09/11 09:16:20;;;;;;;5.97;4.18;;;;;;;;;;5076723;28;20041;-54
2022/09/11 09:18:54;;;;;;;7.50;3.70;;;;;;;;;;5065253;28;20097;-55
2022/09/11 09:21:34;;;;;;;6.25;3.45;;;;;;;;;;5078018;28;20060;-56
2022/09/11 09:24:02;;;;;;;9.88;3.97;;;;;;;;;;5080300;28;20060;-56
2022/09/11 09:26:39;;;;;;;7.78;3.53;;;;;;;;;;5075425;28;20502;-67
2022/09/11 09:29:38;;;;;;;6.28;3.78;;;;;;;;;;5078756;28;20605;-51
2022/09/11 09:32:19;;;;;;;7.05;3.83;;;;;;;;;;5079243;28;20040;-57
2022/09/11 09:34:49;;;;;;;5.90;3.85;;;;;;;;;;5079317;28;20484;-58
2022/09/11 09:37:25;;;;;;;4.60;3.25;;;;;;;;;;5076548;28;20067;-57
2022/09/11 09:39:52;;;;;;;5.32;3.30;;;;;;;;;;5081093;28;20045;-52
2022/09/11 09:42:19;;;;;;;5.55;3.53;;;;;;;;;;5074855;28;20519;-55
2022/09/11 09:45:00;;;;;;;4.68;3.22;;;;;;;;;;5075508;28;20080;-58
2022/09/11 09:47:28;;;;;;;7.30;3.53;;;;;;;;;;5076919;28;20098;-54
2022/09/11 09:50:02;;;;;;;6.28;3.50;;;;;;;;;;5078374;28;20098;-44
2022/09/11 09:52:29;;;;;;;;;;;;;;;;;;5080086;28;20059;-45
2022/09/11 09:55:00;;;;;;;8.93;3.95;;;;;;;;;;5078353;28;19927;-45
2022/09/11 09:57:35;;;;;;;9.65;3.80;;;;;;;;;;5076246;28;20064;-45
2022/09/11 10:00:20;;;;;;;5.13;3.50;;;;;;;;;;5079719;28;20043;-45
2022/09/11 10:02:59;;;;;;;5.72;3.78;;;;;;;;;;5078485;28;20082;-46
2022/09/11 10:05:42;;;;;;;5.55;3.35;;;;;;;;;;5077715;28;20144;-53
2022/09/11 10:08:25;;;;;;;6.40;3.28;;;;;;;;;;5075769;28;20165;-48
2022/09/11 10:10:57;;;;;;;4.25;3.40;;;;;;;;;;5060713;28;20048;-44
2022/09/11 10:13:33;;;;;;;8.63;3.42;;;;;;;;;;5075706;28;20055;-44
2022/09/11 10:16:04;;;;;;;6.88;3.28;;;;;;;;;;5079036;28;20054;-45
2022/09/11 10:18:36;;;;;;;6.45;3.60;;;;;;;;;;5077841;28;20147;-44
2022/09/11 10:21:13;;;;;;;4.78;3.15;;;;;;;;;;5076813;28;20044;-45
2022/09/11 10:23:46;;;;;;;5.45;3.05;;;;;;;;;;5078674;28;20055;-48
2022/09/11 10:26:24;;;;;;;5.47;3.08;;;;;;;;;;5073796;28;20081;-50
2022/09/11 10:29:01;;;;;;;4.18;2.88;;;;;;;;;;5074315;28;20159;-64
2022/09/11 10:31:38;;;;;;;4.47;3.00;;;;;;;;;;5073915;28;20062;-65
2022/09/11 10:34:06;;;;;;;7.05;2.97;;;;;;;;;;5074238;28;20046;-65
2022/09/11 10:36:33;;;;;;;3.97;3.05;;;;;;;;;;5075197;28;20825;-64
2022/09/11 10:39:14;;;;;;;4.32;3.10;;;;;;;;;;5074706;28;20051;-62
2022/09/11 10:41:48;;;;;;;6.40;3.10;;;;;;;;;;5059428;28;20047;-65
2022/09/11 10:44:23;;;;;;;5.20;3.30;;;;;;;;;;5075736;28;21920;-65
2022/09/11 10:47:02;;;;;;;8.30;2.90;;;;;;;;;;5073490;28;20052;-60
2022/09/11 10:49:36;;;;;;;4.75;2.90;;;;;;;;;;5076253;28;20803;-59
2022/09/11 10:52:21;;;;;;;6.30;3.00;;;;;;;;;;5074188;28;20147;-60
2022/09/11 10:55:03;;;;;;;5.78;2.90;;;;;;;;;;5076392;28;20091;-60
2022/09/11 10:57:34;;;;;;;5.28;2.97;;;;;;;;;;5073314;28;20503;-60
2022/09/11 11:00:14;;;;;;;6.38;3.47;;;;;;;;;;5078863;28;20048;-60
2022/09/11 11:02:46;;;;;;;5.00;2.85;;;;;;;;;;5073245;28;20522;-66
2022/09/11 11:05:20;;;;;;;5.22;3.28;;;;;;;;;;5077584;28;20063;-65
2022/09/11 11:07:47;;;;;;;4.95;3.13;;;;;;;;;;5072686;28;20044;-65
2022/09/11 11:10:14;;;;;;;6.82;3.00;;;;;;;;;;5075575;28;20044;-64
2022/09/11 11:13:12;;;;;;;6.72;3.50;;;;;;;;;;5074406;28;20474;-66
2022/09/11 11:15:39;;;;;;;6.03;3.20;;;;;;;;;;5073276;28;20062;-65
2022/09/11 11:18:22;;;;;;;6.38;3.03;;;;;;;;;;5076128;28;20047;-64
2022/09/11 11:20:58;;;;;;;7.03;3.17;;;;;;;;;;5072876;28;20142;-55
2022/09/11 11:23:33;;;;;;;7.53;3.05;;;;;;;;;;5070483;28;20079;-48
2022/09/11 11:26:09;;;;;;;9.98;3.28;;;;;;;;;;5071784;28;20056;-51
2022/09/11 11:28:50;;;;;;;5.78;2.90;;;;;;;;;;5062295;28;20496;-54
2022/09/11 11:31:42;;;;;;;5.07;2.80;;;;;;;;;;5055378;28;20062;-54
2022/09/11 11:34:19;;;;;;;5.75;2.42;;;;;;;;;;5055068;28;20143;-51
2022/09/11 11:36:46;;;;;;;4.10;2.70;;;;;;;;;;5032470;28;20049;-52
2022/09/11 11:39:16;;;;;;;3.45;2.60;;;;;;;;;;5055826;28;20500;-46
2022/09/11 11:41:54;;;;;;;6.85;2.58;;;;;;;;;;5055756;28;20095;-72
2022/09/11 11:44:28;;;;;;;6.30;2.85;;;;;;;;;;5056217;28;20476;-47
2022/09/11 11:47:03;;;;;;;6.03;2.60;;;;;;;;;;5057730;28;20114;-46
2022/09/11 11:49:34;;;;;;;6.60;2.92;;;;;;;;;;5058807;28;20071;-49
2022/09/11 11:52:10;;;;;;;5.25;2.97;;;;;;;;;;5059168;28;20044;-49
2022/09/11 11:54:48;;;;;;;4.25;3.15;;;;;;;;;;5058412;28;20052;-49
2022/09/11 11:57:19;;;;;;;4.05;2.70;;;;;;;;;;5057702;28;20521;-46
2022/09/11 11:59:56;;;;;;;6.80;3.00;;;;;;;;;;5053011;28;20057;-44
2022/09/11 12:02:48;;;;;;;5.15;2.80;;;;;;;;;;5040818;28;20048;-48
2022/09/11 12:05:24;;;;;;;4.07;2.50;;;;;;;;;;5043484;28;20059;-49
2022/09/11 12:07:51;;;;;;;8.05;2.92;;;;;;;;;;5052402;28;20059;-48
2022/09/11 12:10:39;;;;;;;4.20;2.70;;;;;;;;;;5056955;28;20644;-48
2022/09/11 12:13:14;;;;;;;6.35;2.80;;;;;;;;;;5056918;28;20045;-47
2022/09/11 12:16:01;;;;;;;4.32;2.50;;;;;;;;;;5058965;28;20080;-52
2022/09/11 12:18:37;;;;;;;5.22;3.00;;;;;;;;;;5047118;28;20052;-60
2022/09/11 12:21:23;;;;;;;3.78;2.63;;;;;;;;;;5060081;28;20071;-74
2022/09/11 12:23:57;;;;;;;8.02;2.90;;;;;;;;;;5053062;28;21032;-52
2022/09/11 12:26:25;;;;;;;4.80;3.08;;;;;;;;;;5057794;28;20076;-54
2022/09/11 12:29:11;;;;;;;5.20;2.60;;;;;;;;;;5070051;28;20404;-53
2022/09/11 12:31:49;;;;;;;6.03;2.70;;;;;;;;;;5079569;28;20093;-53
2022/09/11 12:34:17;;;;;;;5.45;2.63;;;;;;;;;;5078487;28;20058;-55
2022/09/11 12:36:53;;;;;;;7.28;2.88;;;;;;;;;;5078674;28;20040;-51
2022/09/11 12:39:34;;;;;;;4.13;2.53;;;;;;;;;;5064490;28;20062;-63
2022/09/11 12:42:20;;;;;;;4.40;2.85;;;;;;;;;;5075154;28;20077;-54
2022/09/11 12:44:54;;;;;;;3.33;2.30;;;;;;;;;;5080858;28;20044;-56
2022/09/11 12:47:22;;;;;;;3.70;2.42;;;;;;;;;;5078069;28;20056;-54
2022/09/11 12:50:04;;;;;;;4.80;3.05;;;;;;;;;;5080259;28;20043;-55
2022/09/11 12:52:46;;;;;;;3.72;2.60;;;;;;;;;;5063443;28;20041;-51
2022/09/11 12:55:29;;;;;;;3.80;2.70;;;;;;;;;;5077325;28;20396;-45
2022/09/11 12:58:05;;;;;;;7.53;3.42;;;;;;;;;;5080088;28;20052;-53
2022/09/11 13:00:35;;;;;;;6.97;3.10;;;;;;;;;;5076658;28;20047;-73
2022/09/11 13:03:03;;;;;;;6.18;3.17;;;;;;;;;;5081504;28;20575;-73
2022/09/11 13:05:39;;;;;;;8.13;3.50;;;;;;;;;;5079389;28;20048;-73
2022/09/11 13:08:20;;;;;;;7.45;3.20;;;;;;;;;;5074406;28;20396;-73
2022/09/11 13:11:14;;;;;;;11.75;4.18;;;;;;;;;;5072997;28;20509;-73
2022/09/11 13:13:43;;;;;;;7.07;3.60;;;;;;;;;;5081326;28;20087;-73
2022/09/11 13:16:18;;;;;;;7.93;3.22;;;;;;;;;;5077460;28;20050;-65
2022/09/11 13:18:45;;;;;;;;;;;;;;;;;;5079098;28;20567;-53
2022/09/11 13:21:13;;;;;;;5.13;3.25;;;;;;;;;;5075875;28;20375;-55
2022/09/11 13:23:52;;;;;;;7.75;2.83;;;;;;;;;;5078615;28;20075;-51
2022/09/11 13:26:25;;;;;;;4.93;3.60;;;;;;;;;;5079179;28;20055;-55
2022/09/11 13:29:06;;;;;;;5.78;3.53;;;;;;;;;;5071158;28;20052;-54
2022/09/11 13:31:35;;;;;;;5.28;3.17;;;;;;;;;;5061534;28;20128;-54
2022/09/11 13:34:13;;;;;;;6.60;3.22;;;;;;;;;;5059976;28;21400;-56
2022/09/11 13:36:40;;;;;;;6.20;3.17;;;;;;;;;;5056052;28;20131;-52
2022/09/11 13:39:08;;;;;;;5.72;3.35;;;;;;;;;;5063421;28;20436;-58
2022/09/11 13:41:43;;;;;;;7.00;3.10;;;;;;;;;;5057603;28;20725;-57
2022/09/11 13:44:26;;;;;;;3.63;2.85;;;;;;;;;;5059440;28;20076;-57
2022/09/11 13:47:00;;;;;;;14.77;3.22;;;;;;;;;;5057912;28;20538;-58
2022/09/11 13:49:35;;;;;;;5.60;3.17;;;;;;;;;;5055778;28;20455;-58
2022/09/11 13:52:11;;;;;;;7.85;3.00;;;;;;;;;;5060994;28;20044;-58
2022/09/11 13:54:51;;;;;;;6.65;3.20;;;;;;;;;;5063748;28;20427;-47
2022/09/11 13:57:27;;;;;;;8.23;3.22;;;;;;;;;;5057611;28;20048;-52
2022/09/11 14:00:00;;;;;;;4.75;3.08;;;;;;;;;;5059622;28;20428;-46
2022/09/11 14:02:34;;;;;;;7.93;3.45;;;;;;;;;;5037801;28;20071;-49
2022/09/11 14:05:08;;;;;;;6.47;3.63;;;;;;;;;;5060137;28;20099;-49
2022/09/11 14:08:03;;;;;;;5.45;3.15;;;;;;;;;;5054706;28;20049;-53
2022/09/11 14:10:32;;;;;;;5.78;3.05;;;;;;;;;;5050717;28;20041;-47
2022/09/11 14:13:09;;;;;;;6.30;3.08;;;;;;;;;;5050799;28;20040;-58
2022/09/11 14:15:38;;;;;;;8.68;3.70;;;;;;;;;;5058273;28;20055;-64
2022/09/11 14:18:20;;;;;;;7.05;2.78;;;;;;;;;;5055704;28;20542;-64
2022/09/11 14:20:48;;;;;;;4.83;3.10;;;;;;;;;;4154060;28;10000847;-65
2022/09/11 14:23:28;;;;;;;7.13;4.03;;;;;;;;;;4996991;28;20308;-64
2022/09/11 14:26:06;;;;;;;5.75;3.28;;;;;;;;;;4987111;28;20056;-64
2022/09/11 14:29:05;;;;;;;11.55;3.75;;;;;;;;;;5001611;28;20045;-65
2022/09/11 14:31:43;;;;;;;7.25;3.72;;;;;;;;;;5013615;28;20509;-59
2022/09/11 14:34:30;;;;;;;6.20;3.63;;;;;;;;;;5016160;28;20049;-59
2022/09/11 14:37:02;;;;;;;10.23;3.78;;;;;;;;;;5017357;28;20056;-64
2022/09/11 14:39:38;;;;;;;5.38;3.50;;;;;;;;;;5014375;28;20139;-64
2022/09/11 14:42:09;;;;;;;5.68;3.40;;;;;;;;;;5016914;28;20041;-64
2022/09/11 14:44:43;;;;;;;6.68;3.35;;;;;;;;;;5017564;28;20493;-65
2022/09/11 14:47:12;;;;;;;;;;;;;;;;;;5015025;28;20522;-64
2022/09/11 14:49:39;;;;;;;8.75;3.42;;;;;;;;;;5017684;28;19925;-55
2022/09/11 14:52:18;;;;;;;6.30;3.63;;;;;;;;;;5015180;28;20063;-55
2022/09/11 14:54:46;;;;;;;6.22;3.20;;;;;;;;;;5015227;28;20081;-54
2022/09/11 14:57:22;;;;;;;6.43;3.78;;;;;;;;;;5013512;28;20746;-54
2022/09/11 14:59:49;;;;;;;9.45;4.45;;;;;;;;;;5016638;28;20053;-54
2022/09/11 15:02:16;;;;;;;;;;;;;;;;;;5011491;28;20667;-56
2022/09/11 15:04:51;;;;;;;7.20;3.58;;;;;;;;;;5012097;28;20462;-55
2022/09/11 15:07:19;;;;;;;8.68;3.80;;;;;;;;;;5013590;28;20412;-56
2022/09/11 15:09:46;;;;;;;;;;;;;;;;;;5009407;28;20107;-59
2022/09/11 15:12:21;;;;;;;7.13;3.00;;;;;;;;;;5012195;28;20372;-46
2022/09/11 15:14:48;;;;;;;6.57;3.50;;;;;;;;;;5009008;28;20055;-59
2022/09/11 15:17:30;;;;;;;7.10;3.40;;;;;;;;;;5012341;28;20177;-59